»·PEaware :: N973DM KTOA-KPOC

N973DM :: KTOA-KPOC

FLIGHT INFORMATION

Flight Status: Arrived
Operator: Privately registered:
United States
More flights under this callsign
Pilot: Anonymous 1328 (1328)
Aircraft: CIRRUS SR-22
(SR22)
More flights by this aircraft type
Origin: KTOA Zamperini
United States
Destination: KPOC Brackett
United States
More flights between these airports :: More routes between these airports
Route: +LAX170R LIMBO V64 SLI V8 POXKU V363 POM
File this flight plan on PilotEdge
Remarks: IMC FLIGHT, REQUEST GPS-A APROACH
Altitude:
(Current/Filed)
5,000ft
Speed:
(Current/Filed)
170kts
Departed: 02-Nov-14 07:14 PM
Arrived: 02-Nov-14 07:58 PM
Distance/Time
Traveled:
32nm/0:43
Distance/Time
To Go:
Arrived

Flight Plot

Page will automatically refresh every two minutes.

Flight plan parsing failed; only flown route is shown


Map Options




Map Legend


Flown Route
Filed Route
Departure Airport
Arrival Airport
Navaid (VOR, NDB)
Fix

Horizontal Profiles

Position Reports

Time Latitude Longitude Heading Altitude Ground
Speed
02-Nov-14 18:52 33.807541 -118.346368 55 105ft 0kts
02-Nov-14 18:53 33.807541 -118.346368 55 105ft 0kts
02-Nov-14 18:54 33.807541 -118.346368 55 105ft 0kts
02-Nov-14 18:55 33.807541 -118.346368 55 105ft 0kts
02-Nov-14 18:56 33.807541 -118.346368 55 105ft 0kts
02-Nov-14 18:57 33.807541 -118.346368 55 105ft 0kts
02-Nov-14 18:58 33.807541 -118.346368 55 105ft 0kts
02-Nov-14 18:59 33.807541 -118.346368 55 105ft 0kts
02-Nov-14 19:00 33.807541 -118.346368 55 105ft 0kts
02-Nov-14 19:01 33.807541 -118.346368 55 105ft 0kts
02-Nov-14 19:02 33.807541 -118.346368 55 105ft 0kts
02-Nov-14 19:03 33.807541 -118.346368 55 105ft 0kts
02-Nov-14 19:04 33.807541 -118.346368 55 105ft 0kts
02-Nov-14 19:05 33.807541 -118.346368 55 105ft 0kts
02-Nov-14 19:06 33.807541 -118.346368 55 105ft 0kts
02-Nov-14 19:07 33.807541 -118.346368 55 105ft 0kts
02-Nov-14 19:08 33.807606 -118.346066 34 105ft 0kts
02-Nov-14 19:09 33.807606 -118.346066 34 105ft 0kts
02-Nov-14 19:10 33.807430 -118.344600 118 105ft 31kts
02-Nov-14 19:11 33.800000 -118.333436 339 105ft 0kts
02-Nov-14 19:12 33.805324 -118.341401 309 165ft 103kts
02-Nov-14 19:13 33.825151 -118.367726 312 1560ft 103kts
02-Nov-14 19:14 33.843510 -118.398199 313 2655ft 118kts
02-Nov-14 19:15 33.865399 -118.427456 311 3686ft 121kts
02-Nov-14 19:16 33.883640 -118.460275 259 4599ft 123kts
02-Nov-14 19:17 33.859744 -118.454504 102 5046ft 142kts
02-Nov-14 19:18 33.851077 -118.406783 102 5111ft 152kts
02-Nov-14 19:19 33.841534 -118.356804 102 4991ft 154kts
02-Nov-14 19:20 33.832086 -118.307572 102 4981ft 155kts
02-Nov-14 19:21 33.822060 -118.255406 102 4969ft 172kts
02-Nov-14 19:22 33.810876 -118.197443 102 4952ft 182kts
02-Nov-14 19:23 33.804934 -118.139785 123 4952ft 182kts
02-Nov-14 19:24 33.788722 -118.082442 103 4951ft 183kts
02-Nov-14 19:25 33.791246 -118.023370 72 4951ft 182kts
02-Nov-14 19:26 33.806386 -117.965203 72 4951ft 183kts
02-Nov-14 19:27 33.821424 -117.907040 72 4950ft 183kts
02-Nov-14 19:28 33.836737 -117.848956 72 4950ft 183kts
02-Nov-14 19:29 33.852111 -117.791016 60 4929ft 184kts
02-Nov-14 19:30 33.899701 -117.783322 358 4951ft 182kts
02-Nov-14 19:31 33.950471 -117.784827 359 4774ft 177kts
02-Nov-14 19:32 33.992767 -117.786885 358 3994ft 136kts
02-Nov-14 19:33 34.029922 -117.787738 359 3008ft 129kts
02-Nov-14 19:34 34.060649 -117.787777 0 2035ft 107kts
02-Nov-14 19:35 34.085889 -117.787389 8 1891ft 101kts
02-Nov-14 19:36 34.115668 -117.781134 67 1861ft 104kts
02-Nov-14 19:37 34.109684 -117.750263 110 3185ft 92kts
02-Nov-14 19:38 34.087021 -117.744999 189 4378ft 94kts
02-Nov-14 19:39 34.061043 -117.750432 189 5542ft 96kts
02-Nov-14 19:40 34.031417 -117.758893 213 6306ft 119kts
02-Nov-14 19:41 33.999561 -117.757634 102 5686ft 160kts
02-Nov-14 19:42 33.995256 -117.705685 95 5341ft 154kts
02-Nov-14 19:43 33.991262 -117.655202 95 5048ft 134kts
02-Nov-14 19:44 33.987942 -117.613277 95 4970ft 121kts
02-Nov-14 19:45 33.984736 -117.573048 95 4971ft 120kts
02-Nov-14 19:46 33.981339 -117.530441 95 4973ft 138kts
02-Nov-14 19:47 34.003488 -117.499802 4 4770ft 159kts
02-Nov-14 19:48 34.050117 -117.495213 4 4225ft 171kts
02-Nov-14 19:49 34.086958 -117.514100 265 3416ft 169kts
02-Nov-14 19:50 34.081802 -117.565466 270 2503ft 135kts
02-Nov-14 19:51 34.083143 -117.608101 273 2498ft 121kts
02-Nov-14 19:52 34.084971 -117.647551 273 2499ft 115kts
02-Nov-14 19:53 34.086800 -117.686154 273 2479ft 116kts
02-Nov-14 19:54 34.088619 -117.724366 273 2057ft 110kts
02-Nov-14 19:55 34.090317 -117.760632 273 1360ft 103kts
02-Nov-14 19:56 34.091552 -117.786586 278 1013ft 30kts
02-Nov-14 19:57 34.092715 -117.790345 355 1013ft 0kts
02-Nov-14 19:58 34.092715 -117.790345 355 1013ft 0kts

Navigation Log

Ident Type
Flight plan parsing failed, navigation log unavailable